sensor_id;sensor_type;location;lat;lon;timestamp;temperature;humidity
22471;DHT22;11402;51.374;6.594;2024-01-30T00:00:42;8.60;99.90
22471;DHT22;11402;51.374;6.594;2024-01-30T00:03:08;8.60;99.90
22471;DHT22;11402;51.374;6.594;2024-01-30T00:05:33;8.50;99.90
22471;DHT22;11402;51.374;6.594;2024-01-30T00:07:59;8.50;99.90
22471;DHT22;11402;51.374;6.594;2024-01-30T00:10:24;8.50;99.90
22471;DHT22;11402;51.374;6.594;2024-01-30T00:12:50;8.50;99.90
22471;DHT22;11402;51.374;6.594;2024-01-30T00:15:16;8.50;99.90
22471;DHT22;11402;51.374;6.594;2024-01-30T00:17:41;8.40;99.90
22471;DHT22;11402;51.374;6.594;2024-01-30T00:20:07;8.40;99.90
22471;DHT22;11402;51.374;6.594;2024-01-30T00:22:34;8.40;99.90
22471;DHT22;11402;51.374;6.594;2024-01-30T00:25:00;8.30;99.90
22471;DHT22;11402;51.374;6.594;2024-01-30T00:27:26;8.30;99.90
22471;DHT22;11402;51.374;6.594;2024-01-30T00:29:52;8.40;99.90
22471;DHT22;11402;51.374;6.594;2024-01-30T00:32:17;8.30;99.90
22471;DHT22;11402;51.374;6.594;2024-01-30T00:34:44;8.30;99.90
22471;DHT22;11402;51.374;6.594;2024-01-30T00:37:10;8.30;99.90
22471;DHT22;11402;51.374;6.594;2024-01-30T00:39:35;8.30;99.90
22471;DHT22;11402;51.374;6.594;2024-01-30T00:42:01;8.30;99.90
22471;DHT22;11402;51.374;6.594;2024-01-30T00:44:27;8.30;99.90
22471;DHT22;11402;51.374;6.594;2024-01-30T00:46:53;8.40;99.90
22471;DHT22;11402;51.374;6.594;2024-01-30T00:49:18;8.40;99.90
22471;DHT22;11402;51.374;6.594;2024-01-30T00:51:44;8.40;99.90
22471;DHT22;11402;51.374;6.594;2024-01-30T00:54:09;8.30;99.90
22471;DHT22;11402;51.374;6.594;2024-01-30T00:56:35;8.30;99.90
22471;DHT22;11402;51.374;6.594;2024-01-30T00:59:00;8.20;99.90
22471;DHT22;11402;51.374;6.594;2024-01-30T01:01:26;8.30;99.90
22471;DHT22;11402;51.374;6.594;2024-01-30T01:03:52;8.20;99.90
22471;DHT22;11402;51.374;6.594;2024-01-30T01:06:17;8.30;99.90
22471;DHT22;11402;51.374;6.594;2024-01-30T01:08:43;8.30;99.90
22471;DHT22;11402;51.374;6.594;2024-01-30T01:11:08;8.40;99.90
22471;DHT22;11402;51.374;6.594;2024-01-30T01:13:34;8.20;99.90
22471;DHT22;11402;51.374;6.594;2024-01-30T01:16:00;8.30;99.90
22471;DHT22;11402;51.374;6.594;2024-01-30T01:18:25;8.30;99.90
22471;DHT22;11402;51.374;6.594;2024-01-30T01:20:52;8.30;99.90
22471;DHT22;11402;51.374;6.594;2024-01-30T01:23:18;8.30;99.90
22471;DHT22;11402;51.374;6.594;2024-01-30T01:25:44;8.30;99.90
22471;DHT22;11402;51.374;6.594;2024-01-30T01:28:09;8.30;99.90
22471;DHT22;11402;51.374;6.594;2024-01-30T01:30:35;8.30;99.90
22471;DHT22;11402;51.374;6.594;2024-01-30T01:33:01;8.30;99.90
22471;DHT22;11402;51.374;6.594;2024-01-30T01:35:27;8.30;99.90
22471;DHT22;11402;51.374;6.594;2024-01-30T01:37:53;8.20;99.90
22471;DHT22;11402;51.374;6.594;2024-01-30T01:40:24;8.20;99.90
22471;DHT22;11402;51.374;6.594;2024-01-30T01:42:51;8.20;99.90
22471;DHT22;11402;51.374;6.594;2024-01-30T01:45:20;8.20;99.90
22471;DHT22;11402;51.374;6.594;2024-01-30T01:47:51;8.20;99.90
22471;DHT22;11402;51.374;6.594;2024-01-30T01:50:17;8.20;99.90
22471;DHT22;11402;51.374;6.594;2024-01-30T01:52:47;8.10;99.90
22471;DHT22;11402;51.374;6.594;2024-01-30T01:55:15;8.20;99.90
22471;DHT22;11402;51.374;6.594;2024-01-30T01:57:42;8.10;99.90
22471;DHT22;11402;51.374;6.594;2024-01-30T02:00:08;8.20;99.90
22471;DHT22;11402;51.374;6.594;2024-01-30T02:02:36;8.10;99.90
22471;DHT22;11402;51.374;6.594;2024-01-30T02:05:02;8.20;99.90
22471;DHT22;11402;51.374;6.594;2024-01-30T02:07:28;8.10;99.90
22471;DHT22;11402;51.374;6.594;2024-01-30T02:09:54;8.10;99.90
22471;DHT22;11402;51.374;6.594;2024-01-30T02:12:20;8.10;99.90
22471;DHT22;11402;51.374;6.594;2024-01-30T02:14:47;8.10;99.90
22471;DHT22;11402;51.374;6.594;2024-01-30T02:17:13;8.00;99.90
22471;DHT22;11402;51.374;6.594;2024-01-30T02:19:39;8.00;99.90
22471;DHT22;11402;51.374;6.594;2024-01-30T02:22:05;8.00;99.90
22471;DHT22;11402;51.374;6.594;2024-01-30T02:24:31;8.00;99.90
22471;DHT22;11402;51.374;6.594;2024-01-30T02:26:57;8.00;99.90
22471;DHT22;11402;51.374;6.594;2024-01-30T02:29:23;8.10;99.90
22471;DHT22;11402;51.374;6.594;2024-01-30T02:31:48;8.00;99.90
22471;DHT22;11402;51.374;6.594;2024-01-30T02:34:14;8.00;99.90
22471;DHT22;11402;51.374;6.594;2024-01-30T02:36:43;7.90;99.90
22471;DHT22;11402;51.374;6.594;2024-01-30T02:39:09;7.90;99.90
22471;DHT22;11402;51.374;6.594;2024-01-30T02:41:35;7.90;99.90
22471;DHT22;11402;51.374;6.594;2024-01-30T02:44:01;8.00;99.90
22471;DHT22;11402;51.374;6.594;2024-01-30T02:46:26;7.90;99.90
22471;DHT22;11402;51.374;6.594;2024-01-30T02:48:52;7.80;99.90
22471;DHT22;11402;51.374;6.594;2024-01-30T02:51:17;7.90;99.90
22471;DHT22;11402;51.374;6.594;2024-01-30T02:53:43;8.00;99.90
22471;DHT22;11402;51.374;6.594;2024-01-30T02:56:08;7.90;99.90
22471;DHT22;11402;51.374;6.594;2024-01-30T02:58:36;7.90;99.90
22471;DHT22;11402;51.374;6.594;2024-01-30T03:01:02;7.90;99.90
22471;DHT22;11402;51.374;6.594;2024-01-30T03:03:27;8.00;99.90
22471;DHT22;11402;51.374;6.594;2024-01-30T03:05:53;8.00;99.90
22471;DHT22;11402;51.374;6.594;2024-01-30T03:08:19;7.90;99.90
22471;DHT22;11402;51.374;6.594;2024-01-30T03:10:44;7.90;99.90
22471;DHT22;11402;51.374;6.594;2024-01-30T03:13:10;7.90;99.90
22471;DHT22;11402;51.374;6.594;2024-01-30T03:15:35;8.10;99.90
22471;DHT22;11402;51.374;6.594;2024-01-30T03:18:02;8.00;99.90
22471;DHT22;11402;51.374;6.594;2024-01-30T03:20:29;7.90;99.90
22471;DHT22;11402;51.374;6.594;2024-01-30T03:22:55;7.90;99.90
22471;DHT22;11402;51.374;6.594;2024-01-30T03:25:21;7.90;99.90
22471;DHT22;11402;51.374;6.594;2024-01-30T03:27:46;7.90;99.90
22471;DHT22;11402;51.374;6.594;2024-01-30T03:30:12;7.90;99.90
22471;DHT22;11402;51.374;6.594;2024-01-30T03:32:38;7.90;99.90
22471;DHT22;11402;51.374;6.594;2024-01-30T03:35:03;7.90;99.90
22471;DHT22;11402;51.374;6.594;2024-01-30T03:37:29;7.90;99.90
22471;DHT22;11402;51.374;6.594;2024-01-30T03:39:55;7.80;99.90
22471;DHT22;11402;51.374;6.594;2024-01-30T03:42:20;7.90;99.90
22471;DHT22;11402;51.374;6.594;2024-01-30T03:44:47;7.90;99.90
22471;DHT22;11402;51.374;6.594;2024-01-30T03:47:13;7.90;99.90
22471;DHT22;11402;51.374;6.594;2024-01-30T03:49:39;7.90;99.90
22471;DHT22;11402;51.374;6.594;2024-01-30T03:52:04;7.90;99.90
22471;DHT22;11402;51.374;6.594;2024-01-30T03:54:30;7.80;99.90
22471;DHT22;11402;51.374;6.594;2024-01-30T03:56:55;7.90;99.90
22471;DHT22;11402;51.374;6.594;2024-01-30T03:59:21;7.90;99.90
22471;DHT22;11402;51.374;6.594;2024-01-30T04:01:50;7.90;99.90
22471;DHT22;11402;51.374;6.594;2024-01-30T04:04:17;7.90;99.90
22471;DHT22;11402;51.374;6.594;2024-01-30T04:06:43;7.80;99.90
22471;DHT22;11402;51.374;6.594;2024-01-30T04:09:09;7.80;99.90
22471;DHT22;11402;51.374;6.594;2024-01-30T04:11:34;7.70;99.90
22471;DHT22;11402;51.374;6.594;2024-01-30T04:14:00;7.80;99.90
22471;DHT22;11402;51.374;6.594;2024-01-30T04:16:26;7.80;99.90
22471;DHT22;11402;51.374;6.594;2024-01-30T04:18:52;7.70;99.90
22471;DHT22;11402;51.374;6.594;2024-01-30T04:21:17;7.70;99.90
22471;DHT22;11402;51.374;6.594;2024-01-30T04:23:43;7.70;99.90
22471;DHT22;11402;51.374;6.594;2024-01-30T04:26:08;7.60;99.90
22471;DHT22;11402;51.374;6.594;2024-01-30T04:28:34;7.60;99.90
22471;DHT22;11402;51.374;6.594;2024-01-30T04:31:00;7.60;99.90
22471;DHT22;11402;51.374;6.594;2024-01-30T04:33:25;7.80;99.90
22471;DHT22;11402;51.374;6.594;2024-01-30T04:35:51;7.80;99.90
22471;DHT22;11402;51.374;6.594;2024-01-30T04:38:17;7.80;99.90
22471;DHT22;11402;51.374;6.594;2024-01-30T04:40:43;7.60;99.90
22471;DHT22;11402;51.374;6.594;2024-01-30T04:43:08;7.70;99.90
22471;DHT22;11402;51.374;6.594;2024-01-30T04:45:34;7.70;99.90
22471;DHT22;11402;51.374;6.594;2024-01-30T04:48:00;7.70;99.90
22471;DHT22;11402;51.374;6.594;2024-01-30T04:50:25;7.60;99.90
22471;DHT22;11402;51.374;6.594;2024-01-30T04:52:52;7.60;99.90
22471;DHT22;11402;51.374;6.594;2024-01-30T04:55:17;7.70;99.90
22471;DHT22;11402;51.374;6.594;2024-01-30T04:57:43;7.80;99.90
22471;DHT22;11402;51.374;6.594;2024-01-30T05:00:09;7.70;99.90
22471;DHT22;11402;51.374;6.594;2024-01-30T05:02:35;7.80;99.90
22471;DHT22;11402;51.374;6.594;2024-01-30T05:05:00;7.80;99.90
22471;DHT22;11402;51.374;6.594;2024-01-30T05:07:26;7.90;99.90
22471;DHT22;11402;51.374;6.594;2024-01-30T05:09:51;7.80;99.90
22471;DHT22;11402;51.374;6.594;2024-01-30T05:12:17;7.80;99.90
22471;DHT22;11402;51.374;6.594;2024-01-30T05:14:45;7.80;99.90
22471;DHT22;11402;51.374;6.594;2024-01-30T05:17:11;7.80;99.90
22471;DHT22;11402;51.374;6.594;2024-01-30T05:19:38;7.70;99.90
22471;DHT22;11402;51.374;6.594;2024-01-30T05:22:04;7.80;99.90
22471;DHT22;11402;51.374;6.594;2024-01-30T05:24:29;7.70;99.90
22471;DHT22;11402;51.374;6.594;2024-01-30T05:26:55;7.70;99.90
22471;DHT22;11402;51.374;6.594;2024-01-30T05:29:20;7.80;99.90
22471;DHT22;11402;51.374;6.594;2024-01-30T05:31:46;7.70;99.90
22471;DHT22;11402;51.374;6.594;2024-01-30T05:34:12;7.60;99.90
22471;DHT22;11402;51.374;6.594;2024-01-30T05:36:37;7.60;99.90
22471;DHT22;11402;51.374;6.594;2024-01-30T05:39:03;7.70;99.90
22471;DHT22;11402;51.374;6.594;2024-01-30T05:41:28;7.70;99.90
22471;DHT22;11402;51.374;6.594;2024-01-30T05:43:54;7.70;99.90
22471;DHT22;11402;51.374;6.594;2024-01-30T05:46:19;7.80;99.90
22471;DHT22;11402;51.374;6.594;2024-01-30T05:48:45;7.80;99.90
22471;DHT22;11402;51.374;6.594;2024-01-30T05:51:10;7.70;99.90
22471;DHT22;11402;51.374;6.594;2024-01-30T05:53:36;7.70;99.90
22471;DHT22;11402;51.374;6.594;2024-01-30T05:56:02;7.70;99.90
22471;DHT22;11402;51.374;6.594;2024-01-30T05:58:28;7.70;99.90
22471;DHT22;11402;51.374;6.594;2024-01-30T06:00:54;7.70;99.90
22471;DHT22;11402;51.374;6.594;2024-01-30T06:03:19;7.70;99.90
22471;DHT22;11402;51.374;6.594;2024-01-30T06:05:45;7.70;99.90
22471;DHT22;11402;51.374;6.594;2024-01-30T06:08:10;7.70;99.90
22471;DHT22;11402;51.374;6.594;2024-01-30T06:10:36;7.80;99.90
22471;DHT22;11402;51.374;6.594;2024-01-30T06:13:02;7.80;99.90
22471;DHT22;11402;51.374;6.594;2024-01-30T06:15:27;7.70;99.90
22471;DHT22;11402;51.374;6.594;2024-01-30T06:17:55;7.80;99.90
22471;DHT22;11402;51.374;6.594;2024-01-30T06:20:21;7.80;99.90
22471;DHT22;11402;51.374;6.594;2024-01-30T06:22:46;7.80;99.90
22471;DHT22;11402;51.374;6.594;2024-01-30T06:25:12;7.80;99.90
22471;DHT22;11402;51.374;6.594;2024-01-30T06:27:37;7.80;99.90
22471;DHT22;11402;51.374;6.594;2024-01-30T06:30:04;7.80;99.90
22471;DHT22;11402;51.374;6.594;2024-01-30T06:32:30;7.80;99.90
22471;DHT22;11402;51.374;6.594;2024-01-30T06:35:00;7.80;99.90
22471;DHT22;11402;51.374;6.594;2024-01-30T06:37:25;7.90;99.90
22471;DHT22;11402;51.374;6.594;2024-01-30T06:39:51;7.90;99.90
22471;DHT22;11402;51.374;6.594;2024-01-30T06:42:18;7.90;99.90
22471;DHT22;11402;51.374;6.594;2024-01-30T06:44:43;7.90;99.90
22471;DHT22;11402;51.374;6.594;2024-01-30T06:47:09;7.90;99.90
22471;DHT22;11402;51.374;6.594;2024-01-30T06:49:35;8.00;99.90
22471;DHT22;11402;51.374;6.594;2024-01-30T06:52:07;8.00;99.90
22471;DHT22;11402;51.374;6.594;2024-01-30T06:54:33;7.90;99.90
22471;DHT22;11402;51.374;6.594;2024-01-30T06:56:59;7.90;99.90
22471;DHT22;11402;51.374;6.594;2024-01-30T06:59:24;7.90;99.90
22471;DHT22;11402;51.374;6.594;2024-01-30T07:01:50;7.80;99.90
22471;DHT22;11402;51.374;6.594;2024-01-30T07:04:15;7.90;99.90
22471;DHT22;11402;51.374;6.594;2024-01-30T07:06:41;7.90;99.90
22471;DHT22;11402;51.374;6.594;2024-01-30T07:09:07;7.90;99.90
22471;DHT22;11402;51.374;6.594;2024-01-30T07:11:34;7.90;99.90
22471;DHT22;11402;51.374;6.594;2024-01-30T07:13:59;8.00;99.90
22471;DHT22;11402;51.374;6.594;2024-01-30T07:16:25;8.10;99.90
22471;DHT22;11402;51.374;6.594;2024-01-30T07:18:51;8.10;99.90
22471;DHT22;11402;51.374;6.594;2024-01-30T07:21:16;8.20;99.90
22471;DHT22;11402;51.374;6.594;2024-01-30T07:23:42;8.20;99.90
22471;DHT22;11402;51.374;6.594;2024-01-30T07:26:08;8.10;99.90
22471;DHT22;11402;51.374;6.594;2024-01-30T07:28:35;8.10;99.90
22471;DHT22;11402;51.374;6.594;2024-01-30T07:31:03;8.10;99.90
22471;DHT22;11402;51.374;6.594;2024-01-30T07:33:29;8.00;99.90
22471;DHT22;11402;51.374;6.594;2024-01-30T07:35:54;8.10;99.90
22471;DHT22;11402;51.374;6.594;2024-01-30T07:38:20;8.10;99.90
22471;DHT22;11402;51.374;6.594;2024-01-30T07:40:46;8.10;99.90
22471;DHT22;11402;51.374;6.594;2024-01-30T07:43:11;8.00;99.90
22471;DHT22;11402;51.374;6.594;2024-01-30T07:45:37;8.10;99.90
22471;DHT22;11402;51.374;6.594;2024-01-30T07:48:07;8.10;99.90
22471;DHT22;11402;51.374;6.594;2024-01-30T07:50:32;8.10;99.90
22471;DHT22;11402;51.374;6.594;2024-01-30T07:53:00;8.00;99.90
22471;DHT22;11402;51.374;6.594;2024-01-30T07:55:25;8.00;99.90
22471;DHT22;11402;51.374;6.594;2024-01-30T07:57:54;8.00;99.90
22471;DHT22;11402;51.374;6.594;2024-01-30T08:00:21;8.10;99.90
22471;DHT22;11402;51.374;6.594;2024-01-30T08:02:47;8.10;99.90
22471;DHT22;11402;51.374;6.594;2024-01-30T08:05:13;8.00;99.90
22471;DHT22;11402;51.374;6.594;2024-01-30T08:07:43;8.10;99.90
22471;DHT22;11402;51.374;6.594;2024-01-30T08:10:11;8.10;99.90
22471;DHT22;11402;51.374;6.594;2024-01-30T08:12:36;8.20;99.90
22471;DHT22;11402;51.374;6.594;2024-01-30T08:15:02;8.20;99.90
22471;DHT22;11402;51.374;6.594;2024-01-30T08:17:28;8.30;99.90
22471;DHT22;11402;51.374;6.594;2024-01-30T08:19:54;8.30;99.90
22471;DHT22;11402;51.374;6.594;2024-01-30T08:22:19;8.40;99.90
22471;DHT22;11402;51.374;6.594;2024-01-30T08:24:45;8.40;99.90
22471;DHT22;11402;51.374;6.594;2024-01-30T08:27:10;8.40;99.90
22471;DHT22;11402;51.374;6.594;2024-01-30T08:29:37;8.40;99.90
22471;DHT22;11402;51.374;6.594;2024-01-30T08:32:05;8.50;99.90
22471;DHT22;11402;51.374;6.594;2024-01-30T08:34:30;8.40;99.90
22471;DHT22;11402;51.374;6.594;2024-01-30T08:36:56;8.40;99.90
22471;DHT22;11402;51.374;6.594;2024-01-30T08:39:22;8.50;99.90
22471;DHT22;11402;51.374;6.594;2024-01-30T08:41:47;8.40;99.90
22471;DHT22;11402;51.374;6.594;2024-01-30T08:44:13;8.50;99.90
22471;DHT22;11402;51.374;6.594;2024-01-30T08:46:38;8.50;99.90
22471;DHT22;11402;51.374;6.594;2024-01-30T08:49:04;8.50;99.90
22471;DHT22;11402;51.374;6.594;2024-01-30T08:51:30;8.60;99.90
22471;DHT22;11402;51.374;6.594;2024-01-30T08:53:55;8.60;99.90
22471;DHT22;11402;51.374;6.594;2024-01-30T08:56:21;8.60;99.90
22471;DHT22;11402;51.374;6.594;2024-01-30T08:58:47;8.60;99.90
22471;DHT22;11402;51.374;6.594;2024-01-30T09:01:12;8.60;99.90
22471;DHT22;11402;51.374;6.594;2024-01-30T09:03:38;8.60;99.90
22471;DHT22;11402;51.374;6.594;2024-01-30T09:06:09;8.60;99.90
22471;DHT22;11402;51.374;6.594;2024-01-30T09:08:35;8.60;99.90
22471;DHT22;11402;51.374;6.594;2024-01-30T09:11:02;8.60;99.90
22471;DHT22;11402;51.374;6.594;2024-01-30T09:13:33;8.60;99.90
22471;DHT22;11402;51.374;6.594;2024-01-30T09:15:59;8.60;99.90
22471;DHT22;11402;51.374;6.594;2024-01-30T09:18:24;8.70;99.90
22471;DHT22;11402;51.374;6.594;2024-01-30T09:20:50;8.70;99.90
22471;DHT22;11402;51.374;6.594;2024-01-30T09:23:15;8.90;99.90
22471;DHT22;11402;51.374;6.594;2024-01-30T09:25:42;8.90;99.90
22471;DHT22;11402;51.374;6.594;2024-01-30T09:28:08;9.00;99.90
22471;DHT22;11402;51.374;6.594;2024-01-30T09:30:34;9.10;99.90
22471;DHT22;11402;51.374;6.594;2024-01-30T09:32:59;9.00;99.90
22471;DHT22;11402;51.374;6.594;2024-01-30T09:35:25;9.10;99.90
22471;DHT22;11402;51.374;6.594;2024-01-30T09:37:50;9.20;99.90
22471;DHT22;11402;51.374;6.594;2024-01-30T09:40:17;9.20;99.90
22471;DHT22;11402;51.374;6.594;2024-01-30T09:42:47;9.30;99.90
22471;DHT22;11402;51.374;6.594;2024-01-30T09:45:14;9.30;99.90
22471;DHT22;11402;51.374;6.594;2024-01-30T09:47:41;9.40;99.90
22471;DHT22;11402;51.374;6.594;2024-01-30T09:50:11;9.40;99.90
22471;DHT22;11402;51.374;6.594;2024-01-30T09:52:37;9.50;99.90
22471;DHT22;11402;51.374;6.594;2024-01-30T09:55:04;9.50;99.90
22471;DHT22;11402;51.374;6.594;2024-01-30T09:57:29;9.60;99.90
22471;DHT22;11402;51.374;6.594;2024-01-30T09:59:55;9.60;99.90
22471;DHT22;11402;51.374;6.594;2024-01-30T10:02:21;9.70;99.90
22471;DHT22;11402;51.374;6.594;2024-01-30T10:04:51;9.70;99.90
22471;DHT22;11402;51.374;6.594;2024-01-30T10:07:20;9.70;99.90
22471;DHT22;11402;51.374;6.594;2024-01-30T10:09:46;9.80;99.90
22471;DHT22;11402;51.374;6.594;2024-01-30T10:12:12;9.70;99.90
22471;DHT22;11402;51.374;6.594;2024-01-30T10:14:41;9.70;99.90
22471;DHT22;11402;51.374;6.594;2024-01-30T10:17:11;9.80;99.90
22471;DHT22;11402;51.374;6.594;2024-01-30T10:19:41;9.70;99.90
22471;DHT22;11402;51.374;6.594;2024-01-30T10:22:07;9.80;99.90
22471;DHT22;11402;51.374;6.594;2024-01-30T10:24:35;9.80;99.90
22471;DHT22;11402;51.374;6.594;2024-01-30T10:27:01;9.80;99.90
22471;DHT22;11402;51.374;6.594;2024-01-30T10:29:27;9.90;99.90
22471;DHT22;11402;51.374;6.594;2024-01-30T10:32:03;9.90;99.90
22471;DHT22;11402;51.374;6.594;2024-01-30T10:37:11;10.00;99.90
22471;DHT22;11402;51.374;6.594;2024-01-30T10:39:44;10.10;99.90
22471;DHT22;11402;51.374;6.594;2024-01-30T10:42:18;10.00;99.90
22471;DHT22;11402;51.374;6.594;2024-01-30T10:45:00;10.10;99.90
22471;DHT22;11402;51.374;6.594;2024-01-30T10:47:29;10.10;99.90
22471;DHT22;11402;51.374;6.594;2024-01-30T10:49:55;10.20;99.90
22471;DHT22;11402;51.374;6.594;2024-01-30T10:52:23;10.20;99.90
22471;DHT22;11402;51.374;6.594;2024-01-30T10:54:51;10.20;99.90
22471;DHT22;11402;51.374;6.594;2024-01-30T10:59:44;9.20;99.90
22471;DHT22;11402;51.374;6.594;2024-01-30T11:02:10;10.60;99.90
22471;DHT22;11402;51.374;6.594;2024-01-30T11:04:41;10.90;99.90
22471;DHT22;11402;51.374;6.594;2024-01-30T11:07:23;10.60;99.90
22471;DHT22;11402;51.374;6.594;2024-01-30T11:09:50;10.70;99.90
22471;DHT22;11402;51.374;6.594;2024-01-30T11:12:16;10.70;99.90
22471;DHT22;11402;51.374;6.594;2024-01-30T11:14:41;10.70;99.90
22471;DHT22;11402;51.374;6.594;2024-01-30T11:17:09;10.70;99.90
22471;DHT22;11402;51.374;6.594;2024-01-30T11:19:37;10.70;99.90
22471;DHT22;11402;51.374;6.594;2024-01-30T11:22:03;10.70;99.90
22471;DHT22;11402;51.374;6.594;2024-01-30T11:24:40;10.60;99.90
22471;DHT22;11402;51.374;6.594;2024-01-30T11:27:09;10.60;99.90
22471;DHT22;11402;51.374;6.594;2024-01-30T11:29:38;10.80;99.90
22471;DHT22;11402;51.374;6.594;2024-01-30T11:32:05;10.90;99.90
22471;DHT22;11402;51.374;6.594;2024-01-30T11:34:32;10.90;99.90
22471;DHT22;11402;51.374;6.594;2024-01-30T11:37:03;11.00;99.90
22471;DHT22;11402;51.374;6.594;2024-01-30T11:39:35;10.90;99.90
22471;DHT22;11402;51.374;6.594;2024-01-30T11:42:03;10.90;99.90
22471;DHT22;11402;51.374;6.594;2024-01-30T11:44:30;10.90;99.90
22471;DHT22;11402;51.374;6.594;2024-01-30T11:46:56;10.90;99.90
22471;DHT22;11402;51.374;6.594;2024-01-30T11:49:21;10.90;99.90
22471;DHT22;11402;51.374;6.594;2024-01-30T11:51:48;10.90;99.90
22471;DHT22;11402;51.374;6.594;2024-01-30T11:54:17;10.90;99.90
22471;DHT22;11402;51.374;6.594;2024-01-30T11:56:43;11.00;99.90
22471;DHT22;11402;51.374;6.594;2024-01-30T11:59:09;10.90;99.90
22471;DHT22;11402;51.374;6.594;2024-01-30T12:01:34;10.90;99.90
22471;DHT22;11402;51.374;6.594;2024-01-30T12:04:00;10.90;99.90
22471;DHT22;11402;51.374;6.594;2024-01-30T12:06:26;10.90;99.90
22471;DHT22;11402;51.374;6.594;2024-01-30T12:09:02;11.00;99.90
22471;DHT22;11402;51.374;6.594;2024-01-30T12:11:29;11.00;99.90
22471;DHT22;11402;51.374;6.594;2024-01-30T12:13:55;11.10;99.90
22471;DHT22;11402;51.374;6.594;2024-01-30T12:16:22;11.10;99.90
22471;DHT22;11402;51.374;6.594;2024-01-30T12:18:48;11.10;99.90
22471;DHT22;11402;51.374;6.594;2024-01-30T12:21:16;11.10;99.90
22471;DHT22;11402;51.374;6.594;2024-01-30T12:23:42;11.10;99.90
22471;DHT22;11402;51.374;6.594;2024-01-30T12:26:08;11.00;99.90
22471;DHT22;11402;51.374;6.594;2024-01-30T12:28:34;11.00;99.90
22471;DHT22;11402;51.374;6.594;2024-01-30T12:31:05;11.00;99.90
22471;DHT22;11402;51.374;6.594;2024-01-30T12:33:31;11.00;99.90
22471;DHT22;11402;51.374;6.594;2024-01-30T12:35:57;11.00;99.90
22471;DHT22;11402;51.374;6.594;2024-01-30T12:38:27;11.00;99.90
22471;DHT22;11402;51.374;6.594;2024-01-30T12:40:55;11.00;99.90
22471;DHT22;11402;51.374;6.594;2024-01-30T12:43:22;11.10;99.90
22471;DHT22;11402;51.374;6.594;2024-01-30T12:45:49;11.20;99.90
22471;DHT22;11402;51.374;6.594;2024-01-30T12:48:15;11.20;99.90
22471;DHT22;11402;51.374;6.594;2024-01-30T12:50:41;11.40;99.90
22471;DHT22;11402;51.374;6.594;2024-01-30T12:53:06;11.30;99.90
22471;DHT22;11402;51.374;6.594;2024-01-30T12:55:32;11.30;99.90
22471;DHT22;11402;51.374;6.594;2024-01-30T12:57:58;11.50;99.90
22471;DHT22;11402;51.374;6.594;2024-01-30T13:00:23;11.40;99.90
22471;DHT22;11402;51.374;6.594;2024-01-30T13:02:49;11.60;99.90
22471;DHT22;11402;51.374;6.594;2024-01-30T13:05:15;11.60;99.90
22471;DHT22;11402;51.374;6.594;2024-01-30T13:07:40;11.50;99.90
22471;DHT22;11402;51.374;6.594;2024-01-30T13:10:06;11.60;99.90
22471;DHT22;11402;51.374;6.594;2024-01-30T13:12:32;11.60;99.90
22471;DHT22;11402;51.374;6.594;2024-01-30T13:14:59;11.60;99.90
22471;DHT22;11402;51.374;6.594;2024-01-30T13:17:27;11.70;99.90
22471;DHT22;11402;51.374;6.594;2024-01-30T13:19:53;11.70;99.90
22471;DHT22;11402;51.374;6.594;2024-01-30T13:22:19;11.80;99.90
22471;DHT22;11402;51.374;6.594;2024-01-30T13:24:47;11.80;99.90
22471;DHT22;11402;51.374;6.594;2024-01-30T13:27:12;11.80;99.90
22471;DHT22;11402;51.374;6.594;2024-01-30T13:29:38;11.80;99.90
22471;DHT22;11402;51.374;6.594;2024-01-30T13:32:04;11.90;99.90
22471;DHT22;11402;51.374;6.594;2024-01-30T13:34:30;11.80;99.90
22471;DHT22;11402;51.374;6.594;2024-01-30T13:36:55;11.90;99.90
22471;DHT22;11402;51.374;6.594;2024-01-30T13:39:21;11.80;99.90
22471;DHT22;11402;51.374;6.594;2024-01-30T13:41:46;11.80;99.90
22471;DHT22;11402;51.374;6.594;2024-01-30T13:44:13;11.90;99.90
22471;DHT22;11402;51.374;6.594;2024-01-30T13:46:39;11.90;99.90
22471;DHT22;11402;51.374;6.594;2024-01-30T13:49:05;11.90;99.90
22471;DHT22;11402;51.374;6.594;2024-01-30T13:51:30;12.00;99.90
22471;DHT22;11402;51.374;6.594;2024-01-30T13:53:56;11.90;99.90
22471;DHT22;11402;51.374;6.594;2024-01-30T13:56:21;11.90;99.90
22471;DHT22;11402;51.374;6.594;2024-01-30T13:58:50;12.00;99.90
22471;DHT22;11402;51.374;6.594;2024-01-30T14:01:16;12.00;99.90
22471;DHT22;11402;51.374;6.594;2024-01-30T14:03:42;12.00;99.90
22471;DHT22;11402;51.374;6.594;2024-01-30T14:06:07;12.00;99.90
22471;DHT22;11402;51.374;6.594;2024-01-30T14:08:33;12.00;99.90
22471;DHT22;11402;51.374;6.594;2024-01-30T14:10:59;11.90;99.90
22471;DHT22;11402;51.374;6.594;2024-01-30T14:13:24;12.00;99.90
22471;DHT22;11402;51.374;6.594;2024-01-30T14:15:51;11.90;99.90
22471;DHT22;11402;51.374;6.594;2024-01-30T14:18:17;12.00;99.90
22471;DHT22;11402;51.374;6.594;2024-01-30T14:20:43;12.00;99.90
22471;DHT22;11402;51.374;6.594;2024-01-30T14:23:09;11.90;99.90
22471;DHT22;11402;51.374;6.594;2024-01-30T14:25:34;11.70;99.90
22471;DHT22;11402;51.374;6.594;2024-01-30T14:28:00;11.80;99.90
22471;DHT22;11402;51.374;6.594;2024-01-30T14:30:25;11.80;99.90
22471;DHT22;11402;51.374;6.594;2024-01-30T14:32:51;11.80;99.90
22471;DHT22;11402;51.374;6.594;2024-01-30T14:35:17;11.60;99.90
22471;DHT22;11402;51.374;6.594;2024-01-30T14:37:42;11.80;99.90
22471;DHT22;11402;51.374;6.594;2024-01-30T14:40:08;11.80;99.90
22471;DHT22;11402;51.374;6.594;2024-01-30T14:42:34;11.70;99.90
22471;DHT22;11402;51.374;6.594;2024-01-30T14:45:01;11.60;99.90
22471;DHT22;11402;51.374;6.594;2024-01-30T14:47:27;11.70;99.90
22471;DHT22;11402;51.374;6.594;2024-01-30T14:49:52;11.70;99.90
22471;DHT22;11402;51.374;6.594;2024-01-30T14:54:44;11.70;99.90
22471;DHT22;11402;51.374;6.594;2024-01-30T14:57:10;11.70;99.90
22471;DHT22;11402;51.374;6.594;2024-01-30T14:59:36;11.70;99.90
22471;DHT22;11402;51.374;6.594;2024-01-30T15:02:02;11.60;99.90
22471;DHT22;11402;51.374;6.594;2024-01-30T15:04:27;11.60;99.90
22471;DHT22;11402;51.374;6.594;2024-01-30T15:06:53;11.50;99.90
22471;DHT22;11402;51.374;6.594;2024-01-30T15:09:19;11.50;99.90
22471;DHT22;11402;51.374;6.594;2024-01-30T15:11:46;11.40;99.90
22471;DHT22;11402;51.374;6.594;2024-01-30T15:14:12;11.30;99.90
22471;DHT22;11402;51.374;6.594;2024-01-30T15:16:38;11.30;99.90
22471;DHT22;11402;51.374;6.594;2024-01-30T15:23:58;11.10;99.90
22471;DHT22;11402;51.374;6.594;2024-01-30T15:26:23;11.10;99.90
22471;DHT22;11402;51.374;6.594;2024-01-30T15:28:50;11.10;99.90
22471;DHT22;11402;51.374;6.594;2024-01-30T15:31:16;11.00;99.90
22471;DHT22;11402;51.374;6.594;2024-01-30T15:33:41;11.00;99.90
22471;DHT22;11402;51.374;6.594;2024-01-30T15:36:08;11.00;99.90
22471;DHT22;11402;51.374;6.594;2024-01-30T15:38:34;10.90;99.90
22471;DHT22;11402;51.374;6.594;2024-01-30T15:41:00;10.90;99.90
22471;DHT22;11402;51.374;6.594;2024-01-30T15:43:26;10.80;99.90
22471;DHT22;11402;51.374;6.594;2024-01-30T15:45:52;10.90;99.90